Time;durP1;ratioP1;P1;durP2;ratioP2;P2;SDS_P1;SDS_P2;PMS_P1;PMS_P2;Temp;Humidity;BMP_temperature;BMP_pressure;BME280_temperature;BME280_humidity;BME280_pressure;Samples;Min_cycle;Max_cycle;Signal;HPM_P1;HPM_P2
2023/10/08 00:01:41;;;;;;;0.20;0.20;;;14.10;99.90;;;;;;6121643;23;20649;-90
2023/10/08 00:04:08;;;;;;;2.80;0.27;;;14.20;99.90;;;;;;6123140;23;20199;-91
2023/10/08 00:06:34;;;;;;;0.10;0.10;;;14.10;99.90;;;;;;6121961;23;20303;-90
2023/10/08 00:09:06;;;;;;;5.53;0.20;;;14.00;99.90;;;;;;6121672;23;20164;-89
2023/10/08 00:11:31;;;;;;;0.10;0.10;;;14.00;99.90;;;;;;6146486;23;20596;-89
2023/10/08 00:13:57;;;;;;;0.20;0.20;;;13.90;99.90;;;;;;6121043;23;20283;-90
2023/10/08 00:16:23;;;;;;;1.90;0.30;;;14.00;99.90;;;;;;6121435;23;20726;-89
2023/10/08 00:18:50;;;;;;;1.10;0.53;;;14.10;99.90;;;;;;6124624;23;20200;-89
2023/10/08 00:21:17;;;;;;;0.23;0.23;;;14.10;99.90;;;;;;6126284;23;20207;-89
2023/10/08 00:23:52;;;;;;;0.20;0.20;;;14.00;99.90;;;;;;6125405;23;20170;-89
2023/10/08 00:26:27;;;;;;;0.60;0.20;;;14.00;99.90;;;;;;6127767;23;20499;-90
2023/10/08 00:28:55;;;;;;;2.83;1.17;;;13.90;99.90;;;;;;6127219;23;20190;-89
2023/10/08 00:31:25;;;;;;;0.17;0.17;;;14.00;99.90;;;;;;6150311;23;20195;-90
2023/10/08 00:33:51;;;;;;;0.20;0.20;;;13.90;99.90;;;;;;6126373;23;20530;-89
2023/10/08 00:36:20;;;;;;;1.20;0.20;;;14.00;99.90;;;;;;6124699;23;20203;-90
2023/10/08 00:38:59;;;;;;;0.17;0.17;;;13.90;99.90;;;;;;6126143;23;20233;-90
2023/10/08 00:41:30;;;;;;;1.33;0.30;;;14.00;99.90;;;;;;6128774;23;20148;-90
2023/10/08 00:43:59;;;;;;;0.50;0.50;;;14.00;99.90;;;;;;6126610;23;20625;-90
2023/10/08 00:46:35;;;;;;;0.60;0.60;;;14.10;99.90;;;;;;6125454;23;20283;-90
2023/10/08 00:51:47;;;;;;;0.33;0.30;;;14.20;99.90;;;;;;6129631;23;20270;-89
2023/10/08 00:54:17;;;;;;;0.10;0.10;;;14.20;99.90;;;;;;6149217;23;20199;-89
2023/10/08 00:59:15;;;;;;;0.27;0.27;;;14.10;99.90;;;;;;6151876;23;20151;-90
2023/10/08 01:01:59;;;;;;;0.60;0.60;;;14.20;99.90;;;;;;6125767;23;20199;-90
2023/10/08 01:04:26;;;;;;;2.37;1.33;;;14.20;99.90;;;;;;6149820;23;20210;-90
2023/10/08 01:07:01;;;;;;;1.70;0.37;;;14.30;99.90;;;;;;6149218;23;20208;-90
2023/10/08 01:09:34;;;;;;;0.30;0.30;;;14.30;99.90;;;;;;6150027;23;20202;-90
2023/10/08 01:12:24;;;;;;;0.97;0.97;;;14.30;99.90;;;;;;6127308;23;20174;-90
2023/10/08 01:14:53;;;;;;;0.33;0.33;;;14.20;99.90;;;;;;6150007;23;20144;-90
2023/10/08 01:17:24;;;;;;;0.13;0.13;;;14.30;99.90;;;;;;6150959;23;20166;-90
2023/10/08 01:19:54;;;;;;;5.80;0.40;;;14.30;99.90;;;;;;6150253;23;20219;-90
2023/10/08 01:22:22;;;;;;;0.77;0.47;;;14.40;99.90;;;;;;6150028;23;20211;-90
2023/10/08 01:24:51;;;;;;;1.30;1.13;;;14.40;99.90;;;;;;6125903;23;20651;-91
2023/10/08 01:27:24;;;;;;;0.40;0.40;;;14.50;99.90;;;;;;6149875;23;20537;-91
2023/10/08 01:29:53;;;;;;;1.13;0.50;;;14.50;99.90;;;;;;6127324;23;20163;-91
2023/10/08 01:32:22;;;;;;;0.20;0.20;;;14.40;99.90;;;;;;6150665;23;20166;-90
2023/10/08 01:34:49;;;;;;;0.30;0.30;;;14.40;99.90;;;;;;6125325;23;20278;-90
2023/10/08 01:37:18;;;;;;;0.30;0.20;;;14.50;99.90;;;;;;6125374;23;20624;-90
2023/10/08 01:39:45;;;;;;;1.03;0.40;;;14.40;99.90;;;;;;6150172;23;20670;-90
2023/10/08 01:42:17;;;;;;;0.33;0.33;;;14.40;99.90;;;;;;6125490;23;20223;-90
2023/10/08 01:44:48;;;;;;;0.60;0.33;;;14.40;99.90;;;;;;6150232;23;20148;-89
2023/10/08 01:47:17;;;;;;;0.73;0.53;;;14.40;99.90;;;;;;6126357;23;20179;-88
2023/10/08 01:49:44;;;;;;;0.30;0.30;;;14.40;99.90;;;;;;6125361;23;20187;-90
2023/10/08 01:52:22;;;;;;;1.13;0.57;;;14.40;99.90;;;;;;6125384;23;20334;-91
2023/10/08 01:54:49;;;;;;;0.30;0.30;;;14.40;99.90;;;;;;6150244;23;20195;-90
2023/10/08 01:57:16;;;;;;;2.03;0.80;;;14.40;99.90;;;;;;6126298;23;20215;-90
2023/10/08 01:59:44;;;;;;;0.37;0.37;;;14.40;99.90;;;;;;6126756;23;20668;-90
2023/10/08 02:02:09;;;;;;;1.73;0.80;;;14.40;99.90;;;;;;6101595;23;20510;-90
2023/10/08 02:04:39;;;;;;;0.27;0.27;;;14.40;99.90;;;;;;6126321;23;20205;-90
2023/10/08 02:07:12;;;;;;;0.83;0.83;;;14.40;99.90;;;;;;6126065;23;20214;-90
2023/10/08 02:09:41;;;;;;;0.30;0.30;;;14.40;99.90;;;;;;6101752;23;20245;-90
2023/10/08 02:12:08;;;;;;;1.30;0.50;;;14.40;99.90;;;;;;6150074;23;20528;-90
2023/10/08 02:14:35;;;;;;;0.60;0.60;;;14.40;99.90;;;;;;6125908;23;20541;-90
2023/10/08 02:17:05;;;;;;;1.43;0.57;;;14.40;99.90;;;;;;6125329;23;20249;-90
2023/10/08 02:19:32;;;;;;;0.40;0.40;;;14.40;99.90;;;;;;6125977;23;20222;-90
2023/10/08 02:21:58;;;;;;;3.83;0.40;;;14.40;99.90;;;;;;6124672;23;20257;-90
2023/10/08 02:24:25;;;;;;;1.20;0.87;;;14.50;99.90;;;;;;6125650;23;20207;-90
2023/10/08 02:26:52;;;;;;;1.40;0.67;;;14.50;99.90;;;;;;6125371;23;20269;-90
2023/10/08 02:29:18;;;;;;;0.67;0.57;;;14.60;99.90;;;;;;6127674;23;20167;-90
2023/10/08 02:31:44;;;;;;;0.97;0.50;;;14.60;99.90;;;;;;6125786;23;20256;-90
2023/10/08 02:34:10;;;;;;;4.90;0.93;;;14.60;99.90;;;;;;6126558;23;20199;-90
2023/10/08 02:36:37;;;;;;;2.90;0.73;;;14.70;99.90;;;;;;6102521;23;20677;-90
2023/10/08 02:39:13;;;;;;;0.60;0.60;;;14.60;99.90;;;;;;6125127;23;20203;-90
2023/10/08 02:41:45;;;;;;;2.10;0.67;;;14.70;99.90;;;;;;6150870;23;20591;-90
2023/10/08 02:44:15;;;;;;;5.20;0.70;;;14.60;99.90;;;;;;6150076;23;20683;-90
2023/10/08 02:46:42;;;;;;;1.53;0.73;;;14.60;99.90;;;;;;6151398;23;20210;-90
2023/10/08 02:49:11;;;;;;;4.40;0.77;;;14.60;99.90;;;;;;6150824;23;20250;-90
2023/10/08 02:51:39;;;;;;;1.67;0.57;;;14.60;99.90;;;;;;6125789;23;20202;-90
2023/10/08 02:54:05;;;;;;;0.70;0.53;;;14.60;99.90;;;;;;6126749;23;20191;-90
2023/10/08 02:56:33;;;;;;;0.40;0.40;;;14.60;99.90;;;;;;6127531;23;20247;-90
2023/10/08 02:59:00;;;;;;;3.40;0.90;;;14.50;99.90;;;;;;6124776;23;20258;-90
2023/10/08 03:01:26;;;;;;;0.33;0.33;;;14.40;99.90;;;;;;6100666;23;20218;-90
2023/10/08 03:04:03;;;;;;;2.77;0.97;;;14.40;99.90;;;;;;6113413;23;20259;-90
2023/10/08 03:06:32;;;;;;;0.30;0.30;;;14.30;99.90;;;;;;6127220;23;20211;-90
2023/10/08 03:09:04;;;;;;;4.10;0.53;;;14.30;99.90;;;;;;6125358;23;20271;-90
2023/10/08 03:11:31;;;;;;;2.37;0.70;;;14.30;99.90;;;;;;6127055;23;20238;-90
2023/10/08 03:13:57;;;;;;;0.80;0.60;;;14.40;99.90;;;;;;6125577;23;20207;-90
2023/10/08 03:16:28;;;;;;;0.53;0.50;;;14.40;99.90;;;;;;6126521;23;20667;-90
2023/10/08 03:18:57;;;;;;;11.17;0.90;;;14.50;99.90;;;;;;6127538;23;21102;-90
2023/10/08 03:21:48;;;;;;;3.50;1.37;;;14.50;99.90;;;;;;6125595;23;20203;-90
2023/10/08 03:24:42;;;;;;;5.80;0.70;;;14.60;99.90;;;;;;6128415;23;20660;-90
2023/10/08 03:27:12;;;;;;;2.40;0.87;;;14.60;99.90;;;;;;6126172;23;20726;-90
2023/10/08 03:29:41;;;;;;;0.40;0.40;;;14.70;99.90;;;;;;6128686;23;20231;-91
2023/10/08 03:32:17;;;;;;;2.90;0.40;;;14.70;99.90;;;;;;6152264;23;20854;-90
2023/10/08 03:34:54;;;;;;;1.43;1.07;;;14.70;99.90;;;;;;6152548;23;20190;-90
2023/10/08 03:37:29;;;;;;;0.50;0.50;;;14.70;99.90;;;;;;6129529;23;20195;-90
2023/10/08 03:40:22;;;;;;;7.30;1.43;;;14.70;99.90;;;;;;6151907;23;20206;-90
2023/10/08 03:42:49;;;;;;;5.47;2.27;;;14.70;99.90;;;;;;6132189;23;20199;-90
2023/10/08 03:45:22;;;;;;;2.57;0.57;;;14.70;99.90;;;;;;6127816;23;20260;-91
2023/10/08 03:48:03;;;;;;;3.60;0.90;;;14.70;99.90;;;;;;6151514;23;20180;-90
2023/10/08 03:50:43;;;;;;;0.83;0.57;;;14.80;99.90;;;;;;6152468;23;20210;-91
2023/10/08 03:53:11;;;;;;;0.47;0.47;;;14.80;99.90;;;;;;6150875;23;20171;-90
2023/10/08 03:55:40;;;;;;;0.90;0.87;;;14.70;99.90;;;;;;6127401;23;20198;-91
2023/10/08 03:58:14;;;;;;;1.07;0.50;;;14.80;99.90;;;;;;6126871;23;20199;-91
2023/10/08 04:00:45;;;;;;;3.70;0.77;;;14.70;99.90;;;;;;6150747;23;20202;-90
2023/10/08 04:03:11;;;;;;;2.33;0.80;;;14.80;99.90;;;;;;6127117;23;20199;-90
2023/10/08 04:05:59;;;;;;;2.63;0.50;;;14.70;99.90;;;;;;6127188;23;20254;-90
2023/10/08 04:08:42;;;;;;;0.30;0.30;;;14.60;99.90;;;;;;6130444;23;20997;-90
2023/10/08 04:11:29;;;;;;;4.93;0.50;;;14.60;99.90;;;;;;6130510;23;20183;-91
2023/10/08 04:13:55;;;;;;;6.73;1.13;;;14.60;99.90;;;;;;6130454;23;20187;-90
2023/10/08 04:16:21;;;;;;;0.67;0.60;;;14.50;99.90;;;;;;6125964;23;20249;-91
2023/10/08 04:18:50;;;;;;;1.30;0.70;;;14.40;99.90;;;;;;6125851;23;20203;-93
2023/10/08 04:21:20;;;;;;;1.17;1.13;;;14.40;99.90;;;;;;6127025;23;20223;-90
2023/10/08 04:23:51;;;;;;;4.63;0.77;;;14.40;99.90;;;;;;6126662;23;20167;-91
2023/10/08 04:26:23;;;;;;;10.87;0.90;;;14.40;99.90;;;;;;6104201;23;20183;-91
2023/10/08 04:28:54;;;;;;;1.37;1.07;;;14.40;99.90;;;;;;6127556;23;20234;-91
2023/10/08 04:31:24;;;;;;;1.20;0.87;;;14.40;99.90;;;;;;6126995;23;20226;-89
2023/10/08 04:33:51;;;;;;;1.57;0.37;;;14.30;99.90;;;;;;6126664;23;20531;-89
2023/10/08 04:36:19;;;;;;;2.00;0.93;;;14.20;99.90;;;;;;6125981;23;20700;-89
2023/10/08 04:38:48;;;;;;;3.07;0.67;;;14.20;99.90;;;;;;6126628;23;20529;-89
2023/10/08 04:41:18;;;;;;;2.30;0.60;;;14.20;99.90;;;;;;6127017;23;20227;-90
2023/10/08 04:43:44;;;;;;;0.50;0.40;;;14.20;99.90;;;;;;6126487;23;20588;-91
2023/10/08 04:46:21;;;;;;;0.93;0.63;;;14.20;99.90;;;;;;6126670;23;20203;-91
2023/10/08 04:48:49;;;;;;;1.53;0.50;;;14.10;99.90;;;;;;6103874;23;20945;-91
2023/10/08 04:51:17;;;;;;;5.80;0.93;;;14.10;99.90;;;;;;6126333;23;20195;-91
2023/10/08 04:53:47;;;;;;;11.90;2.13;;;14.10;99.90;;;;;;6126681;23;20182;-90
2023/10/08 04:56:16;;;;;;;4.20;1.37;;;14.00;99.90;;;;;;6127536;23;20170;-90
2023/10/08 04:58:46;;;;;;;6.13;0.77;;;14.10;99.90;;;;;;6126191;23;20868;-90
2023/10/08 05:01:18;;;;;;;1.10;1.03;;;14.10;99.90;;;;;;6101698;23;20775;-91
2023/10/08 05:04:07;;;;;;;0.87;0.73;;;14.10;99.90;;;;;;6126830;23;20195;-90
2023/10/08 05:09:12;;;;;;;3.73;0.50;;;14.10;99.90;;;;;;6127107;23;20163;-91
2023/10/08 05:14:38;;;;;;;7.53;0.97;;;14.10;99.90;;;;;;6152349;23;20183;-91
2023/10/08 05:17:10;;;;;;;0.30;0.30;;;14.10;99.90;;;;;;6128654;23;20214;-91
2023/10/08 05:30:31;;;;;;;2.47;1.60;;;14.10;99.90;;;;;;6128594;23;20203;-91
2023/10/08 05:33:24;;;;;;;1.70;0.40;;;14.00;99.90;;;;;;6128376;23;20166;-91
2023/10/08 05:35:54;;;;;;;3.20;1.40;;;14.00;99.90;;;;;;6131518;23;20235;-90
2023/10/08 05:46:39;;;;;;;4.00;0.40;;;14.00;99.90;;;;;;6151965;23;20805;-91
2023/10/08 06:13:06;;;;;;;0.20;0.20;;;14.20;99.90;;;;;;6127757;23;20196;-90
2023/10/08 06:18:17;;;;;;;1.07;0.70;;;14.20;99.90;;;;;;6151470;23;20207;-89
2023/10/08 06:20:43;;;;;;;1.03;0.53;;;14.20;99.90;;;;;;6125604;23;20254;-90
2023/10/08 06:23:18;;;;;;;0.93;0.80;;;14.30;99.90;;;;;;6126142;23;20173;-92
2023/10/08 06:25:44;;;;;;;2.30;0.50;;;14.20;99.90;;;;;;6126582;23;20195;-92
2023/10/08 06:28:21;;;;;;;1.67;1.07;;;14.20;99.90;;;;;;6125746;23;20211;-88
2023/10/08 06:30:48;;;;;;;6.33;0.77;;;14.30;99.90;;;;;;6126019;23;20229;-89
2023/10/08 06:33:15;;;;;;;7.03;1.30;;;14.20;99.90;;;;;;6124825;23;20238;-89
2023/10/08 06:36:02;;;;;;;0.43;0.43;;;14.00;99.90;;;;;;6125820;23;20531;-89
2023/10/08 06:38:32;;;;;;;0.50;0.50;;;14.10;99.90;;;;;;6129606;23;20183;-89
2023/10/08 06:43:48;;;;;;;0.67;0.67;;;14.20;99.90;;;;;;6151811;23;20195;-90
2023/10/08 06:46:14;;;;;;;2.23;0.67;;;14.20;99.90;;;;;;6127639;23;20195;-90
2023/10/08 06:48:45;;;;;;;1.20;0.50;;;14.30;99.90;;;;;;6151739;23;20252;-89
2023/10/08 06:51:13;;;;;;;12.53;0.53;;;14.40;99.90;;;;;;6128642;23;20199;-90
2023/10/08 06:53:46;;;;;;;1.10;0.50;;;14.50;99.90;;;;;;6127125;23;20468;-89
2023/10/08 06:56:13;;;;;;;2.40;0.53;;;14.60;99.90;;;;;;6103253;23;20187;-89
2023/10/08 06:58:45;;;;;;;4.80;0.97;;;14.70;99.90;;;;;;6152045;23;20203;-88
2023/10/08 07:01:13;;;;;;;1.23;0.60;;;14.80;99.90;;;;;;6149774;23;20199;-89
2023/10/08 07:03:38;;;;;;;1.27;0.80;;;14.80;99.90;;;;;;6126142;23;20200;-89
2023/10/08 07:06:16;;;;;;;0.70;0.23;;;14.70;99.90;;;;;;6151598;23;20256;-89
2023/10/08 07:08:46;;;;;;;0.50;0.50;;;14.60;99.90;;;;;;6152789;23;20148;-89
2023/10/08 07:11:13;;;;;;;4.60;0.67;;;14.60;99.90;;;;;;6128610;23;20199;-88
2023/10/08 07:13:43;;;;;;;6.47;0.70;;;14.70;99.90;;;;;;6152117;23;20199;-89
2023/10/08 07:16:11;;;;;;;0.77;0.77;;;14.80;99.90;;;;;;6151230;23;20667;-89
2023/10/08 07:18:41;;;;;;;3.43;0.60;;;14.70;99.90;;;;;;6128517;23;20849;-89
2023/10/08 07:21:13;;;;;;;0.70;0.47;;;14.60;99.90;;;;;;6127496;23;20217;-89
2023/10/08 07:23:59;;;;;;;0.77;0.53;;;14.60;99.90;;;;;;6128435;23;20151;-90
2023/10/08 07:26:35;;;;;;;2.90;0.57;;;14.60;99.90;;;;;;6131053;23;20171;-90
2023/10/08 07:29:07;;;;;;;0.53;0.40;;;14.50;99.90;;;;;;6150931;23;20194;-87
2023/10/08 07:31:36;;;;;;;0.40;0.30;;;14.40;99.90;;;;;;6150836;23;20218;-89
2023/10/08 07:34:18;;;;;;;1.60;0.40;;;14.40;99.90;;;;;;6150982;23;20640;-89
2023/10/08 07:36:51;;;;;;;0.70;0.70;;;14.40;99.90;;;;;;6151183;23;20199;-89
2023/10/08 07:41:51;;;;;;;0.50;0.37;;;14.10;99.90;;;;;;6128582;23;20152;-91
2023/10/08 07:44:21;;;;;;;0.20;0.17;;;14.10;99.90;;;;;;6151794;23;20190;-92
2023/10/08 07:46:52;;;;;;;0.73;0.67;;;14.00;99.90;;;;;;6127794;23;20238;-92
2023/10/08 07:49:18;;;;;;;4.73;1.10;;;14.10;99.90;;;;;;6127321;23;20728;-92
2023/10/08 07:51:50;;;;;;;0.57;0.57;;;14.30;99.90;;;;;;6152380;23;20907;-93
2023/10/08 07:54:24;;;;;;;0.63;0.30;;;14.50;99.90;;;;;;6129160;23;20271;-92
2023/10/08 07:57:08;;;;;;;1.90;1.20;;;14.60;99.90;;;;;;6127157;23;20552;-93
2023/10/08 07:59:38;;;;;;;5.03;0.60;;;14.70;99.90;;;;;;6131576;23;20686;-92
2023/10/08 08:02:11;;;;;;;0.40;0.40;;;14.90;99.90;;;;;;6103144;23;20199;-93
2023/10/08 08:04:50;;;;;;;1.50;0.60;;;15.00;99.90;;;;;;6128082;23;20234;-93
2023/10/08 08:07:16;;;;;;;0.63;0.60;;;15.20;99.90;;;;;;6151547;23;20230;-92
2023/10/08 08:09:50;;;;;;;0.80;0.33;;;15.30;99.90;;;;;;6126896;23;20206;-90
2023/10/08 08:12:16;;;;;;;3.57;0.50;;;15.50;99.90;;;;;;6129112;23;20199;-93
2023/10/08 08:14:43;;;;;;;0.30;0.30;;;15.50;99.90;;;;;;6128262;23;20537;-90
2023/10/08 08:17:14;;;;;;;0.77;0.73;;;15.60;99.90;;;;;;6127913;23;20199;-93
2023/10/08 08:19:47;;;;;;;1.27;0.93;;;15.70;99.90;;;;;;6123483;23;20269;-94
2023/10/08 08:22:20;;;;;;;1.80;0.43;;;15.70;99.90;;;;;;6122302;23;20208;-93
2023/10/08 08:24:55;;;;;;;5.07;1.13;;;15.80;99.90;;;;;;6123630;23;20207;-93
2023/10/08 08:27:23;;;;;;;0.20;0.20;;;16.00;99.90;;;;;;6124238;23;20578;-94
2023/10/08 08:29:55;;;;;;;2.30;0.40;;;16.40;99.90;;;;;;6145916;23;20164;-93
2023/10/08 08:32:23;;;;;;;0.83;0.80;;;17.30;99.90;;;;;;6147812;23;20576;-93
2023/10/08 08:34:52;;;;;;;4.43;0.67;;;17.80;99.90;;;;;;6146936;23;20259;-92
2023/10/08 08:37:18;;;;;;;2.57;0.33;;;18.30;99.90;;;;;;6122978;23;20196;-91
2023/10/08 08:39:45;;;;;;;1.70;0.90;;;19.20;99.90;;;;;;6146973;23;20279;-90
2023/10/08 08:42:11;;;;;;;2.10;0.60;;;19.50;99.90;;;;;;6122766;23;20199;-91
2023/10/08 08:44:45;;;;;;;2.67;0.80;;;18.90;99.90;;;;;;6123087;23;20172;-90
2023/10/08 08:47:17;;;;;;;2.27;1.27;;;18.70;99.90;;;;;;6147286;23;20200;-91
2023/10/08 08:49:46;;;;;;;2.67;0.77;;;18.50;99.90;;;;;;6123196;23;20196;-90
2023/10/08 08:52:13;;;;;;;2.23;0.73;;;18.40;99.90;;;;;;6123564;23;20245;-90
2023/10/08 08:54:41;;;;;;;3.40;1.03;;;17.80;99.90;;;;;;6122626;23;20244;-90
2023/10/08 08:57:13;;;;;;;0.67;0.67;;;17.80;99.90;;;;;;6122691;23;20203;-91
2023/10/08 08:59:52;;;;;;;0.77;0.60;;;17.50;99.90;;;;;;6147504;23;20538;-90
2023/10/08 09:02:18;;;;;;;2.20;0.93;;;17.30;99.90;;;;;;6123025;23;20179;-91
2023/10/08 09:04:45;;;;;;;0.60;0.60;;;17.60;99.90;;;;;;6122853;23;20203;-90
2023/10/08 09:07:12;;;;;;;3.20;0.93;;;17.30;99.90;;;;;;6097934;23;20208;-90
2023/10/08 09:09:39;;;;;;;3.90;0.60;;;17.30;99.90;;;;;;6120619;23;20200;-90
2023/10/08 09:12:07;;;;;;;1.27;0.87;;;16.90;99.90;;;;;;6121564;23;20195;-90
2023/10/08 09:14:33;;;;;;;1.33;0.97;;;16.80;99.90;;;;;;6123796;23;20566;-92
2023/10/08 09:17:05;;;;;;;1.47;0.70;;;16.60;99.90;;;;;;6122255;23;20226;-93
2023/10/08 09:19:38;;;;;;;2.70;0.70;;;16.70;99.90;;;;;;6132476;23;20219;-91
2023/10/08 09:22:05;;;;;;;0.77;0.40;;;17.00;99.90;;;;;;6151184;23;20207;-91
2023/10/08 09:24:36;;;;;;;3.10;0.50;;;17.10;99.90;;;;;;6126464;23;20258;-91
2023/10/08 09:27:04;;;;;;;2.57;0.77;;;16.80;99.90;;;;;;6151915;23;20198;-91
2023/10/08 09:29:30;;;;;;;1.63;0.53;;;17.10;99.90;;;;;;6127628;23;20163;-90
2023/10/08 09:31:58;;;;;;;0.40;0.40;;;17.30;99.90;;;;;;6150622;23;20203;-90
2023/10/08 09:34:33;;;;;;;2.00;0.70;;;17.40;99.90;;;;;;6127747;23;20559;-91
2023/10/08 09:37:07;;;;;;;0.70;0.70;;;17.50;99.90;;;;;;6127755;23;20203;-91
2023/10/08 09:39:36;;;;;;;0.30;0.30;;;17.60;99.90;;;;;;6150450;23;20624;-92
2023/10/08 09:42:03;;;;;;;0.67;0.60;;;17.80;99.90;;;;;;6150787;23;20167;-92
2023/10/08 09:44:30;;;;;;;0.97;0.80;;;17.30;99.90;;;;;;6127698;23;20171;-91
2023/10/08 09:47:05;;;;;;;0.50;0.50;;;17.30;99.90;;;;;;6126106;23;20215;-91
2023/10/08 09:49:36;;;;;;;2.93;0.43;;;17.50;99.90;;;;;;6150919;23;20202;-90
2023/10/08 09:52:06;;;;;;;2.93;0.77;;;17.30;99.90;;;;;;6150724;23;20290;-91
2023/10/08 09:54:42;;;;;;;3.27;0.77;;;16.90;99.90;;;;;;6151544;23;20302;-92
2023/10/08 09:57:10;;;;;;;3.10;0.27;;;17.00;99.90;;;;;;6152129;23;20245;-93
2023/10/08 09:59:37;;;;;;;0.60;0.60;;;16.90;99.90;;;;;;6135605;23;20311;-93
2023/10/08 10:02:05;;;;;;;4.67;1.80;;;16.70;99.90;;;;;;6134205;23;20270;-92
2023/10/08 10:04:32;;;;;;;1.40;0.70;;;16.90;99.90;;;;;;6109673;23;20202;-91
2023/10/08 10:06:58;;;;;;;1.30;0.97;;;17.10;99.90;;;;;;6158132;23;20213;-91
2023/10/08 10:09:26;;;;;;;2.83;0.53;;;17.20;99.90;;;;;;6157202;23;20225;-94
2023/10/08 10:11:53;;;;;;;1.40;1.07;;;16.90;99.90;;;;;;6157273;23;20634;-93
2023/10/08 10:14:22;;;;;;;0.83;0.83;;;17.60;99.90;;;;;;6133918;23;20183;-91
2023/10/08 10:17:26;;;;;;;11.30;1.63;;;18.10;99.90;;;;;;6156492;23;20261;-90
2023/10/08 10:20:01;;;;;;;1.13;0.40;;;18.50;99.90;;;;;;6123188;23;20219;-90
2023/10/08 10:22:34;;;;;;;2.83;1.23;;;18.10;99.90;;;;;;6152049;23;20235;-92
2023/10/08 10:25:14;;;;;;;2.63;0.47;;;18.00;99.90;;;;;;6128311;23;20204;-90
2023/10/08 10:27:55;;;;;;;0.70;0.70;;;17.60;99.90;;;;;;6152506;23;20211;-90
2023/10/08 10:30:23;;;;;;;0.67;0.67;;;17.50;99.90;;;;;;6150596;23;20342;-91
2023/10/08 10:32:52;;;;;;;3.70;0.77;;;17.50;99.90;;;;;;6148993;23;20247;-91
2023/10/08 10:35:19;;;;;;;1.80;0.40;;;17.40;99.90;;;;;;6149774;23;20159;-91
2023/10/08 10:37:51;;;;;;;2.17;0.50;;;17.20;99.90;;;;;;6124095;23;20227;-91
2023/10/08 10:40:44;;;;;;;1.93;0.80;;;17.20;99.90;;;;;;6149198;23;20207;-91
2023/10/08 10:43:10;;;;;;;2.07;0.67;;;17.60;99.90;;;;;;6152260;23;20200;-90
2023/10/08 10:45:47;;;;;;;1.60;1.27;;;17.90;99.90;;;;;;6123170;23;20222;-93
2023/10/08 10:53:27;;;;;;;4.03;0.80;;;17.50;99.90;;;;;;6126638;23;20176;-92
2023/10/08 10:56:09;;;;;;;3.07;0.70;;;17.60;99.90;;;;;;6150956;23;20218;-92
2023/10/08 10:58:41;;;;;;;0.67;0.50;;;17.40;99.90;;;;;;6129962;23;20535;-92
2023/10/08 11:01:25;;;;;;;3.47;0.97;;;17.40;99.90;;;;;;6128292;23;20226;-93
2023/10/08 11:03:52;;;;;;;3.70;0.60;;;17.40;99.90;;;;;;6129295;23;20199;-91
2023/10/08 11:06:22;;;;;;;0.23;0.23;;;17.00;99.90;;;;;;6101439;23;20601;-91
2023/10/08 11:08:50;;;;;;;4.27;0.40;;;16.90;99.90;;;;;;6126153;23;20734;-91
2023/10/08 11:11:27;;;;;;;0.50;0.50;;;16.90;99.90;;;;;;6150841;23;20156;-92
2023/10/08 11:14:00;;;;;;;0.30;0.30;;;16.90;99.90;;;;;;6151105;23;20439;-94
2023/10/08 11:16:26;;;;;;;5.20;1.90;;;17.00;99.90;;;;;;6152439;23;21004;-94
2023/10/08 11:18:57;;;;;;;5.13;2.10;;;17.10;99.90;;;;;;6128124;23;20243;-93
2023/10/08 11:21:24;;;;;;;1.33;0.67;;;17.30;99.90;;;;;;6156837;23;20205;-94
2023/10/08 11:24:08;;;;;;;1.40;0.70;;;17.40;99.90;;;;;;6155611;23;20163;-94
2023/10/08 11:26:54;;;;;;;1.17;0.53;;;17.70;99.90;;;;;;6110401;23;20150;-92
2023/10/08 11:29:25;;;;;;;0.80;0.60;;;17.40;99.90;;;;;;6134447;23;20176;-93
2023/10/08 11:31:51;;;;;;;2.27;0.80;;;17.10;99.90;;;;;;6131674;23;20203;-93
2023/10/08 11:34:23;;;;;;;0.40;0.37;;;16.90;99.90;;;;;;6156006;23;20214;-93
2023/10/08 11:36:55;;;;;;;0.70;0.70;;;16.80;99.90;;;;;;6132422;23;20334;-94
2023/10/08 11:39:21;;;;;;;2.03;0.43;;;16.90;99.90;;;;;;6132538;23;20201;-92
2023/10/08 11:42:03;;;;;;;7.10;1.10;;;16.80;99.90;;;;;;6132238;23;20234;-93
2023/10/08 11:44:36;;;;;;;0.97;0.80;;;16.70;99.90;;;;;;6132374;23;20267;-93
2023/10/08 11:47:12;;;;;;;1.07;1.07;;;16.80;99.90;;;;;;6155307;23;20211;-92
2023/10/08 11:49:50;;;;;;;4.10;1.03;;;16.80;99.90;;;;;;6133362;23;20652;-94
2023/10/08 11:52:16;;;;;;;1.63;0.80;;;16.80;99.90;;;;;;6156211;23;20679;-92
2023/10/08 11:54:44;;;;;;;2.50;1.00;;;16.90;99.90;;;;;;6108121;23;20211;-91
2023/10/08 11:57:11;;;;;;;4.83;0.80;;;16.90;99.90;;;;;;6152816;23;20250;-92
2023/10/08 11:59:41;;;;;;;2.23;0.57;;;17.00;99.90;;;;;;6128810;23;20951;-93
2023/10/08 12:02:07;;;;;;;0.77;0.70;;;17.10;99.90;;;;;;6129426;23;20245;-93
2023/10/08 12:04:32;;;;;;;2.40;0.70;;;17.50;99.90;;;;;;6128331;23;20242;-92
2023/10/08 12:07:02;;;;;;;1.07;0.90;;;17.90;99.90;;;;;;6128534;23;20321;-95
2023/10/08 12:09:28;;;;;;;0.90;0.40;;;18.10;99.90;;;;;;6129388;23;20531;-93
2023/10/08 12:11:57;;;;;;;3.47;1.50;;;18.60;99.90;;;;;;6128006;23;20179;-91
2023/10/08 12:14:30;;;;;;;8.00;1.20;;;18.70;99.90;;;;;;6129280;23;20549;-92
2023/10/08 12:16:55;;;;;;;1.23;1.00;;;19.10;99.90;;;;;;6127764;23;20630;-95
2023/10/08 12:19:22;;;;;;;1.37;0.73;;;18.70;99.90;;;;;;6127800;23;20668;-95
2023/10/08 12:21:51;;;;;;;4.70;1.07;;;18.50;99.90;;;;;;6154035;23;20229;-94
2023/10/08 12:24:19;;;;;;;1.47;1.23;;;18.40;99.90;;;;;;6128988;23;20214;-94
2023/10/08 12:26:45;;;;;;;4.10;0.80;;;18.70;99.90;;;;;;6128523;23;20186;-92
2023/10/08 12:29:16;;;;;;;3.03;0.77;;;18.70;99.90;;;;;;6107443;23;20155;-92
2023/10/08 12:31:53;;;;;;;2.00;0.70;;;18.40;99.90;;;;;;6154974;23;20202;-93
2023/10/08 12:34:19;;;;;;;2.13;0.50;;;18.30;99.90;;;;;;6131413;23;20206;-92
2023/10/08 12:36:47;;;;;;;2.13;0.53;;;18.30;99.90;;;;;;6129154;23;20203;-92
2023/10/08 12:39:16;;;;;;;0.90;0.50;;;18.80;99.90;;;;;;6130327;23;20191;-93
2023/10/08 12:41:53;;;;;;;1.53;0.63;;;18.50;99.90;;;;;;6131594;23;20190;-92
2023/10/08 12:44:19;;;;;;;2.20;0.60;;;18.60;99.90;;;;;;6108602;23;20186;-92
2023/10/08 12:46:48;;;;;;;2.90;0.90;;;18.50;99.90;;;;;;6129506;23;20278;-92
2023/10/08 12:49:14;;;;;;;2.40;0.87;;;18.60;99.90;;;;;;6155081;23;20644;-92
2023/10/08 12:51:41;;;;;;;1.17;1.00;;;18.60;99.90;;;;;;6129518;23;20201;-93
2023/10/08 12:54:10;;;;;;;5.93;0.80;;;18.60;99.90;;;;;;6131131;23;20199;-92
2023/10/08 12:56:44;;;;;;;4.43;0.77;;;18.80;99.90;;;;;;6132121;23;20239;-92
2023/10/08 12:59:20;;;;;;;4.57;1.20;;;19.30;99.90;;;;;;6107509;23;20230;-92
2023/10/08 13:01:50;;;;;;;1.60;0.50;;;19.10;99.90;;;;;;6131121;23;20195;-92
2023/10/08 13:04:25;;;;;;;3.50;0.93;;;18.70;99.90;;;;;;6130500;23;20222;-92
2023/10/08 13:06:52;;;;;;;0.37;0.37;;;18.90;99.90;;;;;;6131501;23;20518;-93
2023/10/08 13:09:18;;;;;;;0.50;0.50;;;18.40;99.90;;;;;;6132288;23;20206;-92
2023/10/08 13:11:45;;;;;;;0.60;0.60;;;18.20;99.90;;;;;;6130180;23;20160;-93
2023/10/08 13:14:11;;;;;;;3.93;1.10;;;18.30;99.90;;;;;;6131603;23;20651;-93
2023/10/08 13:16:37;;;;;;;8.23;0.93;;;18.20;99.90;;;;;;6130252;23;20200;-93
2023/10/08 13:19:04;;;;;;;0.50;0.40;;;18.10;99.90;;;;;;6129445;23;20202;-92
2023/10/08 13:21:31;;;;;;;2.00;0.77;;;17.90;99.90;;;;;;6154279;23;20207;-92
2023/10/08 13:23:59;;;;;;;2.17;0.80;;;18.20;99.90;;;;;;6131384;23;20355;-93
2023/10/08 13:26:30;;;;;;;1.43;1.33;;;18.10;99.90;;;;;;6155253;23;20159;-92
2023/10/08 13:28:59;;;;;;;2.77;0.93;;;17.90;99.90;;;;;;6154844;23;20291;-92
2023/10/08 13:31:26;;;;;;;3.63;0.90;;;17.80;99.90;;;;;;6127387;23;20200;-92
2023/10/08 13:34:02;;;;;;;1.30;0.70;;;17.90;99.90;;;;;;6130206;23;20222;-92
2023/10/08 13:36:28;;;;;;;1.13;0.80;;;17.80;99.90;;;;;;6129187;23;20278;-94
2023/10/08 13:38:55;;;;;;;5.47;1.00;;;17.80;99.90;;;;;;6126127;23;20191;-91
2023/10/08 13:41:21;;;;;;;2.13;0.57;;;18.00;99.90;;;;;;6152979;23;20652;-95
2023/10/08 13:44:01;;;;;;;2.53;0.63;;;18.20;99.90;;;;;;6128385;23;20207;-96
2023/10/08 13:46:27;;;;;;;6.03;1.10;;;18.10;99.90;;;;;;6152414;23;20214;-93
2023/10/08 13:48:53;;;;;;;6.37;0.80;;;18.00;99.90;;;;;;6127815;23;20199;-92
2023/10/08 13:51:23;;;;;;;4.50;0.83;;;18.00;99.90;;;;;;6127905;23;20274;-94
2023/10/08 13:53:53;;;;;;;2.07;0.77;;;18.00;99.90;;;;;;6131236;23;20163;-94
2023/10/08 13:56:32;;;;;;;0.53;0.50;;;17.90;99.90;;;;;;6152388;23;20242;-94
2023/10/08 13:59:11;;;;;;;1.27;0.50;;;17.80;99.90;;;;;;6129805;23;20211;-94
2023/10/08 14:01:40;;;;;;;2.00;0.93;;;17.70;99.90;;;;;;6130052;23;20202;-93
2023/10/08 14:04:07;;;;;;;0.73;0.50;;;17.60;99.90;;;;;;6127452;23;20203;-93
2023/10/08 14:06:40;;;;;;;1.07;0.77;;;17.50;99.90;;;;;;6126764;23;20218;-93
2023/10/08 14:09:08;;;;;;;1.60;0.40;;;17.40;99.90;;;;;;6151195;23;20187;-94
2023/10/08 14:11:35;;;;;;;3.50;0.57;;;17.10;99.90;;;;;;6151853;23;20234;-95